sensor_id;sensor_type;location;lat;lon;timestamp;pressure;altitude;pressure_sealevel;temperature;humidity
56074;BME280;41950;55.840;37.442;2023-05-19T00:01:43;100273.94;;;14.99;77.04
56074;BME280;41950;55.840;37.442;2023-05-19T00:04:10;100295.25;;;15.18;76.90
56074;BME280;41950;55.840;37.442;2023-05-19T00:06:39;100296.06;;;15.20;76.43
56074;BME280;41950;55.840;37.442;2023-05-19T00:09:09;100305.72;;;15.18;76.13
56074;BME280;41950;55.840;37.442;2023-05-19T00:11:38;100297.88;;;15.18;76.10
56074;BME280;41950;55.840;37.442;2023-05-19T00:14:06;100280.00;;;15.01;75.83
56074;BME280;41950;55.840;37.442;2023-05-19T00:16:37;100317.31;;;15.06;76.12
56074;BME280;41950;55.840;37.442;2023-05-19T00:19:05;100313.19;;;14.98;76.40
56074;BME280;41950;55.840;37.442;2023-05-19T00:21:35;100308.91;;;14.95;76.19
56074;BME280;41950;55.840;37.442;2023-05-19T00:24:05;100275.38;;;14.77;76.14
56074;BME280;41950;55.840;37.442;2023-05-19T00:26:32;100317.53;;;14.99;76.10
56074;BME280;41950;55.840;37.442;2023-05-19T00:28:58;100301.47;;;14.80;76.29
56074;BME280;41950;55.840;37.442;2023-05-19T00:31:24;100304.94;;;14.79;76.69
56074;BME280;41950;55.840;37.442;2023-05-19T00:33:50;100301.66;;;14.71;76.96
56074;BME280;41950;55.840;37.442;2023-05-19T00:36:16;100313.72;;;14.76;76.63
56074;BME280;41950;55.840;37.442;2023-05-19T00:38:42;100329.31;;;14.81;76.67
56074;BME280;41950;55.840;37.442;2023-05-19T00:41:08;100318.25;;;14.70;76.96
56074;BME280;41950;55.840;37.442;2023-05-19T00:43:33;100328.78;;;14.67;77.27
56074;BME280;41950;55.840;37.442;2023-05-19T00:46:01;100338.41;;;14.65;77.31
56074;BME280;41950;55.840;37.442;2023-05-19T00:48:27;100331.59;;;14.58;77.58
56074;BME280;41950;55.840;37.442;2023-05-19T00:50:55;100345.63;;;14.53;77.57
56074;BME280;41950;55.840;37.442;2023-05-19T00:53:26;100330.34;;;14.35;77.77
56074;BME280;41950;55.840;37.442;2023-05-19T00:55:53;100304.91;;;14.05;77.95
56074;BME280;41950;55.840;37.442;2023-05-19T00:58:19;100307.59;;;14.02;77.79
56074;BME280;41950;55.840;37.442;2023-05-19T01:00:45;100338.47;;;14.21;78.17
56074;BME280;41950;55.840;37.442;2023-05-19T01:03:12;100310.09;;;14.06;77.98
56074;BME280;41950;55.840;37.442;2023-05-19T01:05:40;100329.00;;;14.16;77.58
56074;BME280;41950;55.840;37.442;2023-05-19T01:08:09;100320.47;;;14.09;77.48
56074;BME280;41950;55.840;37.442;2023-05-19T01:10:35;100340.41;;;14.12;77.28
56074;BME280;41950;55.840;37.442;2023-05-19T01:13:03;100324.19;;;13.98;77.96
56074;BME280;41950;55.840;37.442;2023-05-19T01:15:35;100341.53;;;14.00;77.89
56074;BME280;41950;55.840;37.442;2023-05-19T01:18:10;100349.25;;;14.06;78.23
56074;BME280;41950;55.840;37.442;2023-05-19T01:20:40;100355.50;;;13.99;78.38
56074;BME280;41950;55.840;37.442;2023-05-19T01:23:31;100335.97;;;13.75;76.97
56074;BME280;41950;55.840;37.442;2023-05-19T01:29:16;100385.19;;;13.47;73.78
56074;BME280;41950;55.840;37.442;2023-05-19T01:31:45;100372.75;;;13.09;72.83
56074;BME280;41950;55.840;37.442;2023-05-19T01:34:16;100368.75;;;12.90;72.61
56074;BME280;41950;55.840;37.442;2023-05-19T01:36:43;100399.06;;;12.94;72.98
56074;BME280;41950;55.840;37.442;2023-05-19T01:39:10;100382.09;;;12.68;73.49
56074;BME280;41950;55.840;37.442;2023-05-19T01:41:37;100387.34;;;12.65;72.86
56074;BME280;41950;55.840;37.442;2023-05-19T01:44:06;100383.19;;;12.51;73.21
56074;BME280;41950;55.840;37.442;2023-05-19T01:46:32;100394.44;;;12.53;73.18
56074;BME280;41950;55.840;37.442;2023-05-19T01:48:59;100409.97;;;12.60;73.43
56074;BME280;41950;55.840;37.442;2023-05-19T01:51:25;100407.38;;;12.59;73.09
56074;BME280;41950;55.840;37.442;2023-05-19T01:53:51;100394.50;;;12.48;73.11
56074;BME280;41950;55.840;37.442;2023-05-19T01:56:30;100371.28;;;12.34;73.68
56074;BME280;41950;55.840;37.442;2023-05-19T01:59:04;100397.94;;;12.50;73.92
56074;BME280;41950;55.840;37.442;2023-05-19T02:02:04;100412.56;;;12.59;74.13
56074;BME280;41950;55.840;37.442;2023-05-19T02:04:42;100404.88;;;12.51;73.81
56074;BME280;41950;55.840;37.442;2023-05-19T02:12:34;100403.03;;;12.59;73.67
56074;BME280;41950;55.840;37.442;2023-05-19T02:15:15;100409.16;;;12.55;73.17
56074;BME280;41950;55.840;37.442;2023-05-19T02:17:43;100385.97;;;12.40;72.96
56074;BME280;41950;55.840;37.442;2023-05-19T02:20:33;100408.53;;;12.40;72.85
56074;BME280;41950;55.840;37.442;2023-05-19T02:22:58;100404.16;;;12.42;72.91
56074;BME280;41950;55.840;37.442;2023-05-19T02:25:24;100368.19;;;12.06;72.08
56074;BME280;41950;55.840;37.442;2023-05-19T02:27:51;100398.41;;;12.17;73.18
56074;BME280;41950;55.840;37.442;2023-05-19T02:30:16;100394.84;;;12.22;73.22
56074;BME280;41950;55.840;37.442;2023-05-19T02:32:42;100401.72;;;12.26;73.71
56074;BME280;41950;55.840;37.442;2023-05-19T02:35:12;100395.00;;;12.12;73.49
56074;BME280;41950;55.840;37.442;2023-05-19T02:37:38;100404.59;;;12.06;73.84
56074;BME280;41950;55.840;37.442;2023-05-19T02:40:05;100411.53;;;12.06;73.77
56074;BME280;41950;55.840;37.442;2023-05-19T02:42:30;100399.63;;;11.85;73.92
56074;BME280;41950;55.840;37.442;2023-05-19T02:44:56;100418.69;;;11.87;74.65
56074;BME280;41950;55.840;37.442;2023-05-19T02:47:22;100422.13;;;11.89;74.69
56074;BME280;41950;55.840;37.442;2023-05-19T02:49:48;100406.59;;;11.83;75.16
56074;BME280;41950;55.840;37.442;2023-05-19T02:52:15;100391.91;;;11.74;75.33
56074;BME280;41950;55.840;37.442;2023-05-19T02:54:41;100408.22;;;11.92;75.45
56074;BME280;41950;55.840;37.442;2023-05-19T02:57:06;100420.19;;;12.05;75.47
56074;BME280;41950;55.840;37.442;2023-05-19T02:59:32;100421.97;;;12.03;75.75
56074;BME280;41950;55.840;37.442;2023-05-19T03:02:00;100420.28;;;11.99;75.35
56074;BME280;41950;55.840;37.442;2023-05-19T03:04:28;100399.72;;;11.79;76.17
56074;BME280;41950;55.840;37.442;2023-05-19T03:06:54;100418.56;;;11.96;76.49
56074;BME280;41950;55.840;37.442;2023-05-19T03:09:20;100441.09;;;11.99;76.40
56074;BME280;41950;55.840;37.442;2023-05-19T03:11:46;100432.31;;;12.11;76.25
56074;BME280;41950;55.840;37.442;2023-05-19T03:14:11;100417.59;;;12.06;75.87
56074;BME280;41950;55.840;37.442;2023-05-19T03:16:39;100427.91;;;12.16;76.20
56074;BME280;41950;55.840;37.442;2023-05-19T03:19:08;100434.00;;;12.13;76.34
56074;BME280;41950;55.840;37.442;2023-05-19T03:21:34;100441.88;;;12.09;76.32
56074;BME280;41950;55.840;37.442;2023-05-19T03:24:00;100443.72;;;11.97;76.91
56074;BME280;41950;55.840;37.442;2023-05-19T03:26:26;100448.13;;;11.91;77.38
56074;BME280;41950;55.840;37.442;2023-05-19T03:28:54;100444.59;;;11.95;77.50
56074;BME280;41950;55.840;37.442;2023-05-19T03:31:20;100434.31;;;11.86;78.05
56074;BME280;41950;55.840;37.442;2023-05-19T03:33:47;100455.03;;;11.93;77.89
56074;BME280;41950;55.840;37.442;2023-05-19T03:36:14;100462.00;;;11.90;78.18
56074;BME280;41950;55.840;37.442;2023-05-19T03:38:39;100424.00;;;11.70;78.95
56074;BME280;41950;55.840;37.442;2023-05-19T03:41:05;100424.88;;;11.71;78.71
56074;BME280;41950;55.840;37.442;2023-05-19T03:43:31;100455.19;;;11.80;78.54
56074;BME280;41950;55.840;37.442;2023-05-19T03:45:57;100459.50;;;11.76;78.89
56074;BME280;41950;55.840;37.442;2023-05-19T03:48:23;100397.34;;;11.52;79.06
56074;BME280;41950;55.840;37.442;2023-05-19T03:50:49;100402.38;;;11.67;78.95
56074;BME280;41950;55.840;37.442;2023-05-19T03:53:14;100460.09;;;12.09;78.85
56074;BME280;41950;55.840;37.442;2023-05-19T03:55:40;100469.47;;;12.22;78.79
56074;BME280;41950;55.840;37.442;2023-05-19T03:58:07;100427.25;;;11.97;78.33
56074;BME280;41950;55.840;37.442;2023-05-19T04:00:35;100453.13;;;12.11;78.76
56074;BME280;41950;55.840;37.442;2023-05-19T04:03:01;100466.03;;;12.20;78.27
56074;BME280;41950;55.840;37.442;2023-05-19T04:05:26;100452.25;;;12.12;78.18
56074;BME280;41950;55.840;37.442;2023-05-19T04:07:53;100447.13;;;12.05;78.43
56074;BME280;41950;55.840;37.442;2023-05-19T04:10:19;100456.63;;;12.06;78.42
56074;BME280;41950;55.840;37.442;2023-05-19T04:12:46;100437.72;;;11.91;79.17
56074;BME280;41950;55.840;37.442;2023-05-19T04:15:13;100446.41;;;11.90;79.16
56074;BME280;41950;55.840;37.442;2023-05-19T04:17:40;100474.88;;;12.00;79.25
56074;BME280;41950;55.840;37.442;2023-05-19T04:20:06;100472.28;;;12.00;79.88
56074;BME280;41950;55.840;37.442;2023-05-19T04:22:32;100477.47;;;12.06;79.58
56074;BME280;41950;55.840;37.442;2023-05-19T04:24:58;100456.81;;;11.90;80.12
56074;BME280;41950;55.840;37.442;2023-05-19T04:27:24;100488.66;;;12.12;80.10
56074;BME280;41950;55.840;37.442;2023-05-19T04:29:52;100479.97;;;12.14;80.21
56074;BME280;41950;55.840;37.442;2023-05-19T04:32:19;100484.31;;;12.12;80.17
56074;BME280;41950;55.840;37.442;2023-05-19T04:34:44;100469.66;;;12.02;80.47
56074;BME280;41950;55.840;37.442;2023-05-19T04:37:12;100481.78;;;12.04;80.28
56074;BME280;41950;55.840;37.442;2023-05-19T04:39:44;100486.09;;;12.10;79.95
56074;BME280;41950;55.840;37.442;2023-05-19T04:42:11;100490.44;;;12.08;79.60
56074;BME280;41950;55.840;37.442;2023-05-19T04:44:38;100483.50;;;12.09;79.83
56074;BME280;41950;55.840;37.442;2023-05-19T04:47:07;100467.94;;;12.05;79.87
56074;BME280;41950;55.840;37.442;2023-05-19T04:49:34;100458.38;;;12.07;79.85
56074;BME280;41950;55.840;37.442;2023-05-19T04:52:10;100464.19;;;12.26;79.64
56074;BME280;41950;55.840;37.442;2023-05-19T04:54:36;100453.72;;;12.31;79.39
56074;BME280;41950;55.840;37.442;2023-05-19T04:57:03;100479.53;;;12.51;79.28
56074;BME280;41950;55.840;37.442;2023-05-19T04:59:29;100478.84;;;12.36;78.53
56074;BME280;41950;55.840;37.442;2023-05-19T05:01:56;100459.91;;;12.24;79.41
56074;BME280;41950;55.840;37.442;2023-05-19T05:04:23;100477.09;;;12.37;78.94
56074;BME280;41950;55.840;37.442;2023-05-19T05:06:49;100475.31;;;12.41;79.51
56074;BME280;41950;55.840;37.442;2023-05-19T05:09:16;100434.84;;;12.15;79.25
56074;BME280;41950;55.840;37.442;2023-05-19T05:11:42;100487.34;;;12.51;79.26
56074;BME280;41950;55.840;37.442;2023-05-19T05:14:09;100480.41;;;12.50;78.92
56074;BME280;41950;55.840;37.442;2023-05-19T05:16:35;100453.72;;;12.32;78.39
56074;BME280;41950;55.840;37.442;2023-05-19T05:19:01;100467.56;;;12.37;78.93
56074;BME280;41950;55.840;37.442;2023-05-19T05:21:28;100498.56;;;12.56;79.16
56074;BME280;41950;55.840;37.442;2023-05-19T05:23:54;100489.91;;;12.52;78.51
56074;BME280;41950;55.840;37.442;2023-05-19T05:26:20;100483.19;;;12.37;78.21
56074;BME280;41950;55.840;37.442;2023-05-19T05:28:49;100487.53;;;12.32;78.30
56074;BME280;41950;55.840;37.442;2023-05-19T05:31:15;100494.44;;;12.40;78.45
56074;BME280;41950;55.840;37.442;2023-05-19T05:33:41;100478.00;;;12.34;78.44
56074;BME280;41950;55.840;37.442;2023-05-19T05:36:07;100488.31;;;12.44;78.37
56074;BME280;41950;55.840;37.442;2023-05-19T05:38:34;100464.91;;;12.41;78.44
56074;BME280;41950;55.840;37.442;2023-05-19T05:41:00;100505.38;;;12.67;78.45
56074;BME280;41950;55.840;37.442;2023-05-19T05:43:28;100459.47;;;12.57;77.89
56074;BME280;41950;55.840;37.442;2023-05-19T05:45:55;100497.28;;;12.87;77.72
56074;BME280;41950;55.840;37.442;2023-05-19T05:48:21;100514.47;;;13.00;76.89
56074;BME280;41950;55.840;37.442;2023-05-19T05:50:47;100485.16;;;12.85;76.30
56074;BME280;41950;55.840;37.442;2023-05-19T05:53:19;100508.34;;;13.05;76.66
56074;BME280;41950;55.840;37.442;2023-05-19T05:55:46;100501.34;;;13.07;76.95
56074;BME280;41950;55.840;37.442;2023-05-19T05:58:12;100479.94;;;12.88;76.12
56074;BME280;41950;55.840;37.442;2023-05-19T06:00:40;100508.59;;;12.85;76.89
56074;BME280;41950;55.840;37.442;2023-05-19T06:03:10;100472.34;;;12.69;77.42
56074;BME280;41950;55.840;37.442;2023-05-19T06:05:36;100500.75;;;12.89;77.98
56074;BME280;41950;55.840;37.442;2023-05-19T06:08:02;100491.13;;;12.93;77.71
56074;BME280;41950;55.840;37.442;2023-05-19T06:10:28;100516.94;;;13.10;77.69
56074;BME280;41950;55.840;37.442;2023-05-19T06:12:54;100490.91;;;13.08;77.49
56074;BME280;41950;55.840;37.442;2023-05-19T06:15:21;100507.97;;;13.32;76.85
56074;BME280;41950;55.840;37.442;2023-05-19T06:17:46;100498.25;;;13.40;76.05
56074;BME280;41950;55.840;37.442;2023-05-19T06:20:14;100515.13;;;13.75;75.71
56074;BME280;41950;55.840;37.442;2023-05-19T06:22:40;100523.69;;;13.81;75.72
56074;BME280;41950;55.840;37.442;2023-05-19T06:25:06;100523.50;;;13.92;75.10
56074;BME280;41950;55.840;37.442;2023-05-19T06:27:34;100514.91;;;13.85;74.21
56074;BME280;41950;55.840;37.442;2023-05-19T06:29:59;100513.09;;;13.89;74.05
56074;BME280;41950;55.840;37.442;2023-05-19T06:32:25;100483.72;;;13.79;74.03
56074;BME280;41950;55.840;37.442;2023-05-19T06:34:52;100513.91;;;13.92;73.65
56074;BME280;41950;55.840;37.442;2023-05-19T06:37:22;100521.81;;;13.88;73.65
56074;BME280;41950;55.840;37.442;2023-05-19T06:39:52;100515.19;;;13.70;73.77
56074;BME280;41950;55.840;37.442;2023-05-19T06:42:18;100496.34;;;13.53;73.95
56074;BME280;41950;55.840;37.442;2023-05-19T06:44:49;100522.38;;;13.56;73.54
56074;BME280;41950;55.840;37.442;2023-05-19T06:47:16;100514.53;;;13.56;73.51
56074;BME280;41950;55.840;37.442;2023-05-19T06:49:43;100516.75;;;13.80;72.86
56074;BME280;41950;55.840;37.442;2023-05-19T06:52:09;100495.41;;;14.06;71.36
56074;BME280;41950;55.840;37.442;2023-05-19T06:54:34;100520.78;;;14.46;69.55
56074;BME280;41950;55.840;37.442;2023-05-19T06:57:00;100493.06;;;14.37;68.02
56074;BME280;41950;55.840;37.442;2023-05-19T06:59:26;100480.09;;;14.33;68.37
56074;BME280;41950;55.840;37.442;2023-05-19T07:01:52;100503.25;;;14.52;67.03
56074;BME280;41950;55.840;37.442;2023-05-19T07:04:17;100527.78;;;14.44;66.75
56074;BME280;41950;55.840;37.442;2023-05-19T07:06:43;100530.34;;;14.47;66.04
56074;BME280;41950;55.840;37.442;2023-05-19T07:09:08;100527.16;;;14.31;65.43
56074;BME280;41950;55.840;37.442;2023-05-19T07:11:34;100525.50;;;14.27;66.18
56074;BME280;41950;55.840;37.442;2023-05-19T07:14:00;100499.19;;;13.88;65.53
56074;BME280;41950;55.840;37.442;2023-05-19T07:16:26;100523.41;;;13.97;65.66
56074;BME280;41950;55.840;37.442;2023-05-19T07:18:52;100506.88;;;13.96;65.44
56074;BME280;41950;55.840;37.442;2023-05-19T07:21:17;100539.25;;;14.35;65.47
56074;BME280;41950;55.840;37.442;2023-05-19T07:23:43;100541.41;;;14.60;64.60
56074;BME280;41950;55.840;37.442;2023-05-19T07:26:09;100524.41;;;14.82;64.46
56074;BME280;41950;55.840;37.442;2023-05-19T07:28:34;100534.31;;;15.06;63.75
56074;BME280;41950;55.840;37.442;2023-05-19T07:31:00;100539.72;;;14.99;61.13
56074;BME280;41950;55.840;37.442;2023-05-19T07:33:26;100528.44;;;14.97;61.13
56074;BME280;41950;55.840;37.442;2023-05-19T07:35:52;100534.97;;;15.18;59.85
56074;BME280;41950;55.840;37.442;2023-05-19T07:38:18;100534.66;;;15.30;57.83
56074;BME280;41950;55.840;37.442;2023-05-19T07:40:43;100535.53;;;15.30;53.20
56074;BME280;41950;55.840;37.442;2023-05-19T07:43:09;100545.75;;;15.41;52.66
56074;BME280;41950;55.840;37.442;2023-05-19T07:45:36;100532.16;;;15.25;50.08
56074;BME280;41950;55.840;37.442;2023-05-19T07:48:02;100551.63;;;15.51;48.99
56074;BME280;41950;55.840;37.442;2023-05-19T07:50:28;100545.41;;;15.55;49.56
56074;BME280;41950;55.840;37.442;2023-05-19T07:52:54;100540.69;;;15.72;48.68
56074;BME280;41950;55.840;37.442;2023-05-19T07:55:20;100513.81;;;15.65;47.49
56074;BME280;41950;55.840;37.442;2023-05-19T07:57:48;100530.00;;;15.80;44.46
56074;BME280;41950;55.840;37.442;2023-05-19T08:00:15;100546.09;;;15.64;46.35
56074;BME280;41950;55.840;37.442;2023-05-19T08:02:42;100532.59;;;15.44;46.08
56074;BME280;41950;55.840;37.442;2023-05-19T08:05:08;100538.63;;;15.48;46.00
56074;BME280;41950;55.840;37.442;2023-05-19T08:07:35;100529.25;;;15.39;46.84
56074;BME280;41950;55.840;37.442;2023-05-19T08:10:01;100540.72;;;15.32;46.73
56074;BME280;41950;55.840;37.442;2023-05-19T08:12:27;100518.38;;;15.19;48.31
56074;BME280;41950;55.840;37.442;2023-05-19T08:14:53;100519.91;;;15.27;48.67
56074;BME280;41950;55.840;37.442;2023-05-19T08:17:19;100526.56;;;15.42;48.61
56074;BME280;41950;55.840;37.442;2023-05-19T08:19:44;100525.66;;;15.43;47.49
56074;BME280;41950;55.840;37.442;2023-05-19T08:22:10;100513.34;;;15.46;47.71
56074;BME280;41950;55.840;37.442;2023-05-19T08:24:36;100526.16;;;15.57;45.81
56074;BME280;41950;55.840;37.442;2023-05-19T08:27:03;100477.88;;;14.98;47.75
56074;BME280;41950;55.840;37.442;2023-05-19T08:29:29;100546.53;;;15.44;48.83
56074;BME280;41950;55.840;37.442;2023-05-19T08:31:55;100530.81;;;15.46;47.74
56074;BME280;41950;55.840;37.442;2023-05-19T08:34:22;100535.00;;;15.53;46.83
56074;BME280;41950;55.840;37.442;2023-05-19T08:36:48;100542.91;;;15.50;46.67
56074;BME280;41950;55.840;37.442;2023-05-19T08:39:14;100544.28;;;15.68;47.59
56074;BME280;41950;55.840;37.442;2023-05-19T08:41:41;100530.06;;;15.78;47.63
56074;BME280;41950;55.840;37.442;2023-05-19T08:44:07;100520.41;;;15.80;45.76
56074;BME280;41950;55.840;37.442;2023-05-19T08:46:34;100537.41;;;15.98;46.38
56074;BME280;41950;55.840;37.442;2023-05-19T08:49:12;100537.63;;;16.23;46.24
56074;BME280;41950;55.840;37.442;2023-05-19T08:54:16;100530.72;;;16.51;46.18
56074;BME280;41950;55.840;37.442;2023-05-19T08:56:43;100525.81;;;16.72;45.54
56074;BME280;41950;55.840;37.442;2023-05-19T08:59:13;100521.44;;;16.72;45.07
56074;BME280;41950;55.840;37.442;2023-05-19T09:01:42;100527.22;;;16.83;44.42
56074;BME280;41950;55.840;37.442;2023-05-19T09:04:09;100498.91;;;16.63;43.31
56074;BME280;41950;55.840;37.442;2023-05-19T09:06:35;100518.06;;;16.67;41.76
56074;BME280;41950;55.840;37.442;2023-05-19T09:09:00;100491.47;;;16.50;42.60
56074;BME280;41950;55.840;37.442;2023-05-19T09:11:28;100460.06;;;16.48;42.45
56074;BME280;41950;55.840;37.442;2023-05-19T09:13:54;100492.84;;;16.92;41.53
56074;BME280;41950;55.840;37.442;2023-05-19T09:16:21;100511.38;;;17.16;41.21
56074;BME280;41950;55.840;37.442;2023-05-19T09:18:56;100500.56;;;17.26;42.18
56074;BME280;41950;55.840;37.442;2023-05-19T09:21:29;100513.16;;;17.42;40.42
56074;BME280;41950;55.840;37.442;2023-05-19T09:24:03;100498.84;;;17.24;40.80
56074;BME280;41950;55.840;37.442;2023-05-19T09:26:36;100492.81;;;17.22;39.87
56074;BME280;41950;55.840;37.442;2023-05-19T09:29:12;100486.28;;;17.35;40.36
56074;BME280;41950;55.840;37.442;2023-05-19T09:31:39;100508.03;;;17.39;38.46
56074;BME280;41950;55.840;37.442;2023-05-19T09:34:12;100502.81;;;17.37;39.16
56074;BME280;41950;55.840;37.442;2023-05-19T09:36:40;100507.25;;;17.35;38.38
56074;BME280;41950;55.840;37.442;2023-05-19T09:39:17;100500.66;;;17.50;38.89
56074;BME280;41950;55.840;37.442;2023-05-19T09:41:43;100491.34;;;17.68;37.74
56074;BME280;41950;55.840;37.442;2023-05-19T09:44:22;100488.41;;;17.77;36.10
56074;BME280;41950;55.840;37.442;2023-05-19T09:46:49;100496.19;;;18.05;36.94
56074;BME280;41950;55.840;37.442;2023-05-19T09:49:22;100475.66;;;18.41;36.40
56074;BME280;41950;55.840;37.442;2023-05-19T09:54:21;100479.81;;;18.93;35.76
56074;BME280;41950;55.840;37.442;2023-05-19T09:56:59;100493.69;;;19.20;35.35
56074;BME280;41950;55.840;37.442;2023-05-19T09:59:27;100487.56;;;19.84;36.04
56074;BME280;41950;55.840;37.442;2023-05-19T10:01:58;100473.97;;;19.93;33.86
56074;BME280;41950;55.840;37.442;2023-05-19T10:04:25;100471.06;;;19.99;32.94
56074;BME280;41950;55.840;37.442;2023-05-19T10:06:52;100475.84;;;19.91;32.66
56074;BME280;41950;55.840;37.442;2023-05-19T10:09:23;100473.81;;;19.77;32.57
56074;BME280;41950;55.840;37.442;2023-05-19T10:11:53;100495.09;;;19.71;32.55
56074;BME280;41950;55.840;37.442;2023-05-19T10:16:58;100480.50;;;19.84;32.82
56074;BME280;41950;55.840;37.442;2023-05-19T10:19:25;100468.66;;;19.74;32.04
56074;BME280;41950;55.840;37.442;2023-05-19T10:21:53;100472.72;;;19.61;32.67
56074;BME280;41950;55.840;37.442;2023-05-19T10:24:19;100476.16;;;19.83;33.08
56074;BME280;41950;55.840;37.442;2023-05-19T10:27:09;100474.88;;;19.71;32.63
56074;BME280;41950;55.840;37.442;2023-05-19T10:29:43;100478.22;;;19.77;33.56
56074;BME280;41950;55.840;37.442;2023-05-19T10:32:13;100477.59;;;19.90;33.68
56074;BME280;41950;55.840;37.442;2023-05-19T10:37:50;100434.16;;;19.80;34.09
56074;BME280;41950;55.840;37.442;2023-05-19T10:40:25;100477.84;;;20.25;34.13
56074;BME280;41950;55.840;37.442;2023-05-19T10:43:01;100469.22;;;20.42;33.56
56074;BME280;41950;55.840;37.442;2023-05-19T10:45:37;100467.19;;;20.28;31.51
56074;BME280;41950;55.840;37.442;2023-05-19T10:48:09;100479.19;;;19.94;31.67
56074;BME280;41950;55.840;37.442;2023-05-19T10:50:35;100459.28;;;19.67;32.15
56074;BME280;41950;55.840;37.442;2023-05-19T10:53:02;100489.94;;;20.10;32.86
56074;BME280;41950;55.840;37.442;2023-05-19T10:55:45;100475.19;;;20.06;32.31
56074;BME280;41950;55.840;37.442;2023-05-19T10:58:12;100479.69;;;20.23;31.41
56074;BME280;41950;55.840;37.442;2023-05-19T11:00:38;100486.34;;;20.31;31.61
56074;BME280;41950;55.840;37.442;2023-05-19T11:05:38;100451.75;;;20.19;30.66
56074;BME280;41950;55.840;37.442;2023-05-19T11:08:05;100485.88;;;20.22;30.75
56074;BME280;41950;55.840;37.442;2023-05-19T11:10:33;100418.63;;;19.74;30.71
56074;BME280;41950;55.840;37.442;2023-05-19T11:12:59;100454.81;;;20.10;30.99
56074;BME280;41950;55.840;37.442;2023-05-19T11:15:26;100473.63;;;20.21;29.79
56074;BME280;41950;55.840;37.442;2023-05-19T11:17:53;100480.44;;;20.65;29.51
56074;BME280;41950;55.840;37.442;2023-05-19T11:20:27;100487.25;;;21.07;28.11
56074;BME280;41950;55.840;37.442;2023-05-19T11:23:13;100478.00;;;20.98;27.56
56074;BME280;41950;55.840;37.442;2023-05-19T11:25:49;100490.34;;;20.60;27.77
56074;BME280;41950;55.840;37.442;2023-05-19T11:28:18;100482.94;;;20.09;28.51
56074;BME280;41950;55.840;37.442;2023-05-19T11:30:47;100485.31;;;20.15;29.14
56074;BME280;41950;55.840;37.442;2023-05-19T11:33:16;100465.66;;;20.22;28.56
56074;BME280;41950;55.840;37.442;2023-05-19T11:35:47;100493.88;;;20.20;27.64
56074;BME280;41950;55.840;37.442;2023-05-19T11:38:15;100487.75;;;20.40;27.43
56074;BME280;41950;55.840;37.442;2023-05-19T11:40:42;100475.44;;;20.78;28.16
56074;BME280;41950;55.840;37.442;2023-05-19T11:43:09;100483.41;;;21.14;27.60
56074;BME280;41950;55.840;37.442;2023-05-19T11:45:35;100478.84;;;20.99;26.95
56074;BME280;41950;55.840;37.442;2023-05-19T11:48:01;100475.66;;;21.11;27.21
56074;BME280;41950;55.840;37.442;2023-05-19T11:50:29;100502.88;;;21.84;26.31
56074;BME280;41950;55.840;37.442;2023-05-19T11:52:55;100481.50;;;21.88;25.39
56074;BME280;41950;55.840;37.442;2023-05-19T11:55:22;100458.63;;;21.87;25.49
56074;BME280;41950;55.840;37.442;2023-05-19T12:00:21;100486.97;;;22.20;24.98
56074;BME280;41950;55.840;37.442;2023-05-19T12:02:47;100488.81;;;21.83;25.88
56074;BME280;41950;55.840;37.442;2023-05-19T12:05:24;100499.22;;;21.86;26.65
56074;BME280;41950;55.840;37.442;2023-05-19T12:07:51;100495.50;;;21.73;25.95
56074;BME280;41950;55.840;37.442;2023-05-19T12:10:21;100491.53;;;21.65;26.27
56074;BME280;41950;55.840;37.442;2023-05-19T12:12:49;100500.16;;;22.03;27.06
56074;BME280;41950;55.840;37.442;2023-05-19T12:15:22;100492.53;;;21.79;26.17
56074;BME280;41950;55.840;37.442;2023-05-19T12:18:01;100490.50;;;20.95;27.43
56074;BME280;41950;55.840;37.442;2023-05-19T12:20:28;100490.94;;;20.26;27.92
56074;BME280;41950;55.840;37.442;2023-05-19T12:22:57;100498.84;;;20.08;28.63
56074;BME280;41950;55.840;37.442;2023-05-19T12:25:24;100486.78;;;19.82;28.80
56074;BME280;41950;55.840;37.442;2023-05-19T12:27:50;100502.00;;;19.75;29.64
56074;BME280;41950;55.840;37.442;2023-05-19T12:30:25;100459.56;;;19.81;30.64
56074;BME280;41950;55.840;37.442;2023-05-19T12:32:53;100496.84;;;20.13;29.45
56074;BME280;41950;55.840;37.442;2023-05-19T12:35:19;100497.56;;;19.96;28.30
56074;BME280;41950;55.840;37.442;2023-05-19T12:37:47;100483.66;;;19.72;28.42
56074;BME280;41950;55.840;37.442;2023-05-19T12:40:15;100493.41;;;19.70;28.17
56074;BME280;41950;55.840;37.442;2023-05-19T12:42:43;100493.84;;;19.37;28.42
56074;BME280;41950;55.840;37.442;2023-05-19T12:45:09;100495.81;;;19.32;28.42
56074;BME280;41950;55.840;37.442;2023-05-19T12:47:35;100499.25;;;19.56;28.22
56074;BME280;41950;55.840;37.442;2023-05-19T12:50:08;100502.47;;;19.63;28.64
56074;BME280;41950;55.840;37.442;2023-05-19T12:52:41;100493.28;;;19.73;28.44
56074;BME280;41950;55.840;37.442;2023-05-19T12:55:08;100504.25;;;19.62;28.36
56074;BME280;41950;55.840;37.442;2023-05-19T12:57:37;100504.44;;;19.58;28.64
56074;BME280;41950;55.840;37.442;2023-05-19T13:00:12;100485.34;;;19.31;28.17
56074;BME280;41950;55.840;37.442;2023-05-19T13:03:02;100504.44;;;19.36;28.94
56074;BME280;41950;55.840;37.442;2023-05-19T13:05:31;100481.50;;;19.18;29.06
56074;BME280;41950;55.840;37.442;2023-05-19T13:08:04;100493.22;;;19.31;29.09
56074;BME280;41950;55.840;37.442;2023-05-19T13:10:32;100470.09;;;19.17;29.05